Time;durP1;ratioP1;P1;durP2;ratioP2;P2;SDS_P1;SDS_P2;PMS_P1;PMS_P2;Temp;Humidity;BMP_temperature;BMP_pressure;BME280_temperature;BME280_humidity;BME280_pressure;Samples;Min_cycle;Max_cycle;Signal;HPM_P1;HPM_P2
2023/08/26 00:00:33;;;;;;;1999.90;999.90;;;20.00;99.90;;;;;;5067447;28;20490;-67
2023/08/26 00:03:00;;;;;;;1999.90;999.90;;;19.90;99.90;;;;;;5066074;28;20438;-68
2023/08/26 00:05:27;;;;;;;1999.90;999.90;;;19.90;99.90;;;;;;5065679;28;20428;-67
2023/08/26 00:07:54;;;;;;;1999.90;999.90;;;20.00;99.90;;;;;;5064586;28;20498;-68
2023/08/26 00:10:20;;;;;;;1999.90;999.90;;;20.00;99.90;;;;;;5045786;28;20448;-68
2023/08/26 00:12:47;;;;;;;1999.90;999.90;;;20.00;99.90;;;;;;5048718;28;20934;-68
2023/08/26 00:15:15;;;;;;;1999.90;999.90;;;20.10;99.90;;;;;;5057908;28;20435;-67
2023/08/26 00:17:42;;;;;;;1999.90;999.90;;;20.10;99.90;;;;;;5069286;28;20431;-67
2023/08/26 00:20:09;;;;;;;1999.90;999.90;;;20.10;99.90;;;;;;5053318;28;20431;-67
2023/08/26 00:22:36;;;;;;;1999.90;999.90;;;20.20;99.90;;;;;;5067309;28;20431;-67
2023/08/26 00:25:03;;;;;;;1999.90;999.90;;;20.30;99.90;;;;;;5070190;28;20435;-67
2023/08/26 00:27:29;;;;;;;1999.90;999.90;;;20.30;99.90;;;;;;5050046;28;20436;-67
2023/08/26 00:29:56;;;;;;;1999.90;999.90;;;20.20;99.90;;;;;;5069438;28;20437;-67
2023/08/26 00:32:24;;;;;;;1999.90;999.90;;;20.30;99.90;;;;;;5069327;28;20913;-67
2023/08/26 00:34:51;;;;;;;1999.90;999.90;;;20.30;99.90;;;;;;5054152;28;20434;-67
2023/08/26 00:37:17;;;;;;;1999.90;999.90;;;20.10;99.90;;;;;;5058945;28;20436;-67
2023/08/26 00:39:44;;;;;;;1999.90;999.90;;;20.10;99.90;;;;;;5056158;28;20429;-67
2023/08/26 00:42:11;;;;;;;1999.90;999.90;;;19.90;99.90;;;;;;5066810;28;20439;-67
2023/08/26 00:44:37;;;;;;;1999.90;999.90;;;20.00;99.90;;;;;;5069474;28;20430;-68
2023/08/26 00:47:05;;;;;;;1999.90;999.90;;;20.00;99.90;;;;;;5055198;28;20433;-67
2023/08/26 00:49:33;;;;;;;1999.90;999.90;;;20.10;99.90;;;;;;5060245;28;20433;-67
2023/08/26 00:52:00;;;;;;;1999.90;999.90;;;20.10;99.90;;;;;;5068845;28;20431;-67
2023/08/26 00:54:27;;;;;;;1999.90;999.90;;;20.20;99.90;;;;;;5056865;28;20436;-67
2023/08/26 00:56:54;;;;;;;1999.90;999.90;;;20.00;99.90;;;;;;5057686;28;21384;-67
2023/08/26 00:59:21;;;;;;;1999.90;999.90;;;19.90;99.90;;;;;;5065470;28;20960;-67
2023/08/26 01:01:49;;;;;;;1999.90;999.90;;;20.10;99.90;;;;;;5061531;28;20433;-67
2023/08/26 01:04:16;;;;;;;1999.90;999.90;;;20.10;99.90;;;;;;5065673;28;20454;-67
2023/08/26 01:06:44;;;;;;;1999.90;999.90;;;20.20;99.90;;;;;;5058349;28;20868;-67
2023/08/26 01:09:11;;;;;;;1999.90;999.90;;;20.20;99.90;;;;;;5063647;28;20431;-67
2023/08/26 01:11:50;;;;;;;1999.90;999.90;;;20.30;99.90;;;;;;5068425;28;20434;-67
2023/08/26 01:14:23;;;;;;;1999.90;999.90;;;20.40;99.90;;;;;;5057848;28;20437;-67
2023/08/26 01:16:50;;;;;;;1999.90;999.90;;;20.40;99.90;;;;;;5061235;28;20539;-67
2023/08/26 01:19:25;;;;;;;1999.90;999.90;;;20.30;99.90;;;;;;5053283;28;20800;-67
2023/08/26 01:21:57;;;;;;;1999.90;999.90;;;20.20;99.90;;;;;;5059417;28;20437;-67
2023/08/26 01:24:26;;;;;;;1999.90;999.90;;;20.10;99.90;;;;;;5068139;28;20434;-67
2023/08/26 01:26:53;;;;;;;1999.90;999.90;;;20.20;99.90;;;;;;5058222;28;20941;-67
2023/08/26 01:29:20;;;;;;;1999.90;999.90;;;20.20;99.90;;;;;;5057549;28;20457;-67
2023/08/26 01:31:50;;;;;;;1999.90;999.90;;;20.10;99.90;;;;;;5068338;28;20419;-67
2023/08/26 01:34:21;;;;;;;1999.90;999.90;;;19.90;99.90;;;;;;5060686;28;20793;-68
2023/08/26 01:36:49;;;;;;;1999.90;999.90;;;20.10;99.90;;;;;;5059172;28;20513;-67
2023/08/26 01:39:17;;;;;;;1999.90;999.90;;;20.10;99.90;;;;;;5056462;28;20429;-67
2023/08/26 01:41:50;;;;;;;1999.90;999.90;;;20.20;99.90;;;;;;5053792;28;20423;-67
2023/08/26 01:44:18;;;;;;;1999.90;999.90;;;20.20;99.90;;;;;;5058795;28;20448;-67
2023/08/26 01:46:45;;;;;;;1999.90;999.90;;;20.20;99.90;;;;;;5068084;28;20443;-67
2023/08/26 01:49:12;;;;;;;1999.90;999.90;;;20.30;99.90;;;;;;5058758;28;20436;-67
2023/08/26 01:51:39;;;;;;;1999.90;999.90;;;20.50;99.90;;;;;;5062312;28;20512;-67
2023/08/26 01:54:07;;;;;;;1999.90;999.90;;;20.30;99.90;;;;;;5056441;28;20435;-67
2023/08/26 01:56:33;;;;;;;1999.90;999.90;;;20.40;99.90;;;;;;5067888;28;20455;-67
2023/08/26 01:59:01;;;;;;;1999.90;999.90;;;20.20;99.90;;;;;;5052103;28;20437;-67
2023/08/26 02:01:28;;;;;;;1999.90;999.90;;;20.30;99.90;;;;;;5058623;28;20471;-67
2023/08/26 02:03:55;;;;;;;1999.90;999.90;;;20.30;99.90;;;;;;5064829;28;20474;-67
2023/08/26 02:06:22;;;;;;;1999.90;999.90;;;20.20;99.90;;;;;;5067677;28;20435;-67
2023/08/26 02:08:48;;;;;;;1999.90;999.90;;;20.10;99.90;;;;;;5055556;28;20943;-67
2023/08/26 02:11:15;;;;;;;1999.90;999.90;;;20.20;99.90;;;;;;5062053;28;20651;-67
2023/08/26 02:13:42;;;;;;;1999.90;999.90;;;20.10;99.90;;;;;;5059224;28;20911;-67
2023/08/26 02:16:10;;;;;;;1999.90;999.90;;;19.90;99.90;;;;;;5063958;28;20440;-68
2023/08/26 02:18:37;;;;;;;1999.90;999.90;;;19.80;99.90;;;;;;5058365;28;20427;-66
2023/08/26 02:21:04;;;;;;;1999.90;999.90;;;19.80;99.90;;;;;;5062101;28;20438;-67
2023/08/26 02:23:31;;;;;;;1999.90;999.90;;;19.80;99.90;;;;;;5067457;28;20435;-67
2023/08/26 02:25:57;;;;;;;1999.90;999.90;;;19.80;99.90;;;;;;5062228;28;20823;-67
2023/08/26 02:28:24;;;;;;;1999.90;999.90;;;19.80;99.90;;;;;;5050196;28;20433;-67
2023/08/26 02:30:51;;;;;;;1999.90;999.90;;;19.80;99.90;;;;;;5064286;28;20431;-68
2023/08/26 02:33:19;;;;;;;1999.90;999.90;;;19.90;99.90;;;;;;5046942;28;20449;-67
2023/08/26 02:35:46;;;;;;;1999.90;999.90;;;20.00;99.90;;;;;;5062042;28;20431;-67
2023/08/26 02:38:13;;;;;;;1999.90;999.90;;;20.00;99.90;;;;;;5054553;28;20846;-67
2023/08/26 02:40:40;;;;;;;1999.90;999.90;;;20.10;99.90;;;;;;5058091;28;20840;-66
2023/08/26 02:43:06;;;;;;;1999.90;999.90;;;20.10;99.90;;;;;;5067405;28;20435;-67
2023/08/26 02:45:33;;;;;;;1999.90;999.90;;;20.00;99.90;;;;;;5064469;28;20424;-68
2023/08/26 02:48:00;;;;;;;1999.90;999.90;;;19.90;99.90;;;;;;5052983;28;20911;-66
2023/08/26 02:50:28;;;;;;;1999.90;999.90;;;19.70;99.90;;;;;;5060697;28;20438;-67
2023/08/26 02:52:55;;;;;;;1999.90;999.90;;;19.60;99.90;;;;;;5066593;28;20528;-67
2023/08/26 02:55:22;;;;;;;1999.90;999.90;;;19.70;99.90;;;;;;5055285;28;20423;-67
2023/08/26 02:57:49;;;;;;;1999.90;999.90;;;19.80;99.90;;;;;;5055385;28;20424;-66
2023/08/26 03:00:16;;;;;;;1999.90;999.90;;;19.80;99.90;;;;;;5063075;28;20437;-67
2023/08/26 03:02:43;;;;;;;1999.90;999.90;;;19.70;99.90;;;;;;5066796;28;20427;-67
2023/08/26 03:05:10;;;;;;;1999.90;999.90;;;19.70;99.90;;;;;;5066694;28;20471;-67
2023/08/26 03:07:38;;;;;;;1999.90;999.90;;;19.70;99.90;;;;;;5049683;28;20558;-67
2023/08/26 03:10:05;;;;;;;1999.90;999.90;;;19.60;99.90;;;;;;5057671;28;20437;-66
2023/08/26 03:12:32;;;;;;;1999.90;999.90;;;19.70;99.90;;;;;;5066610;28;20431;-66
2023/08/26 03:14:58;;;;;;;1999.90;999.90;;;19.70;99.90;;;;;;5066459;28;20423;-67
2023/08/26 03:17:25;;;;;;;1999.90;999.90;;;19.60;99.90;;;;;;5056357;28;20436;-67
2023/08/26 03:19:52;;;;;;;1999.90;999.90;;;19.70;99.90;;;;;;5053539;28;20437;-66
2023/08/26 03:22:18;;;;;;;1999.90;999.90;;;19.60;99.90;;;;;;5065977;28;20549;-67
2023/08/26 03:24:46;;;;;;;1999.90;999.90;;;19.60;99.90;;;;;;5066464;28;20798;-66
2023/08/26 03:27:13;;;;;;;1999.90;999.90;;;19.50;99.90;;;;;;5059138;28;20491;-67
2023/08/26 03:29:40;;;;;;;1999.90;999.90;;;19.60;99.90;;;;;;5057367;28;20802;-67
2023/08/26 03:32:07;;;;;;;1999.90;999.90;;;19.60;99.90;;;;;;5066198;28;20521;-66
2023/08/26 03:34:34;;;;;;;1999.90;999.90;;;19.50;99.90;;;;;;5065810;28;20458;-67
2023/08/26 03:37:00;;;;;;;1999.90;999.90;;;19.70;99.90;;;;;;5058951;28;20440;-66
2023/08/26 03:39:27;;;;;;;1999.90;999.90;;;19.70;99.90;;;;;;5064175;28;20897;-66
2023/08/26 03:41:55;;;;;;;1999.90;999.90;;;19.60;99.90;;;;;;5066273;28;20435;-66
2023/08/26 03:44:22;;;;;;;1999.90;999.90;;;19.50;99.90;;;;;;5064511;28;20427;-66
2023/08/26 03:46:49;;;;;;;1999.90;999.90;;;19.60;99.90;;;;;;5060569;28;20441;-66
2023/08/26 03:49:16;;;;;;;1999.90;999.90;;;19.70;99.90;;;;;;5052533;28;20434;-66
2023/08/26 03:51:42;;;;;;;1999.90;999.90;;;19.60;99.90;;;;;;5063580;28;20811;-67
2023/08/26 03:54:09;;;;;;;1999.90;999.90;;;19.70;99.90;;;;;;5063984;28;20432;-66
2023/08/26 03:56:36;;;;;;;1999.90;999.90;;;19.80;99.90;;;;;;5054759;28;21525;-66
2023/08/26 03:59:04;;;;;;;1999.90;999.90;;;19.80;99.90;;;;;;5052575;28;20444;-68
2023/08/26 04:01:31;;;;;;;1999.90;999.90;;;19.60;99.90;;;;;;5060562;28;20439;-66
2023/08/26 04:03:58;;;;;;;1999.90;999.90;;;19.70;99.90;;;;;;5055421;28;20461;-66
2023/08/26 04:06:25;;;;;;;1999.90;999.90;;;19.60;99.90;;;;;;5050762;28;20429;-68
2023/08/26 04:08:51;;;;;;;1999.90;999.90;;;19.60;99.90;;;;;;5055413;28;20424;-68
2023/08/26 04:11:18;;;;;;;1999.90;999.90;;;19.70;99.90;;;;;;5054702;28;20450;-68
2023/08/26 04:13:46;;;;;;;1999.90;999.90;;;19.50;99.90;;;;;;5060017;28;20440;-68
2023/08/26 04:16:15;;;;;;;1999.90;999.90;;;19.50;99.90;;;;;;5064492;28;20460;-68
2023/08/26 04:18:42;;;;;;;1999.90;999.90;;;19.70;99.90;;;;;;5060503;28;20434;-68
2023/08/26 04:21:10;;;;;;;1999.90;999.90;;;19.70;99.90;;;;;;5051143;28;20433;-66
2023/08/26 04:23:37;;;;;;;1999.90;999.90;;;19.80;99.90;;;;;;5058519;28;20431;-66
2023/08/26 04:26:04;;;;;;;1999.90;999.90;;;19.90;99.90;;;;;;5062866;28;20921;-66
2023/08/26 04:28:30;;;;;;;1999.90;999.90;;;19.80;99.90;;;;;;5062902;28;20431;-66
2023/08/26 04:30:58;;;;;;;1999.90;999.90;;;19.90;99.90;;;;;;5065301;28;20439;-66
2023/08/26 04:33:26;;;;;;;1999.90;999.90;;;19.80;99.90;;;;;;5055272;28;20433;-66
2023/08/26 04:35:52;;;;;;;1999.90;999.90;;;19.80;99.90;;;;;;5054773;28;20459;-69
2023/08/26 04:38:20;;;;;;;1999.90;999.90;;;19.90;99.90;;;;;;5048233;28;20444;-66
2023/08/26 04:40:46;;;;;;;1999.90;999.90;;;19.90;99.90;;;;;;5059909;28;20522;-66
2023/08/26 04:43:13;;;;;;;1999.90;999.90;;;19.80;99.90;;;;;;5055900;28;20524;-66
2023/08/26 04:45:40;;;;;;;1999.90;999.90;;;19.60;99.90;;;;;;5052164;28;20437;-68
2023/08/26 04:48:08;;;;;;;1999.90;999.90;;;19.70;99.90;;;;;;5051931;28;20465;-68
2023/08/26 04:50:36;;;;;;;1999.90;999.90;;;19.80;99.90;;;;;;5054542;28;20431;-68
2023/08/26 04:53:04;;;;;;;1999.90;999.90;;;19.70;99.90;;;;;;5064502;28;20431;-65
2023/08/26 04:55:31;;;;;;;1999.90;999.90;;;19.60;99.90;;;;;;5064145;28;20459;-66
2023/08/26 04:57:58;;;;;;;1999.90;999.90;;;19.60;99.90;;;;;;5052734;28;20515;-66
2023/08/26 05:00:25;;;;;;;1999.90;999.90;;;19.60;99.90;;;;;;5059426;28;20821;-66
2023/08/26 05:02:52;;;;;;;1999.90;999.90;;;19.70;99.90;;;;;;5068979;28;20435;-66
2023/08/26 05:05:19;;;;;;;1999.90;999.90;;;19.50;99.90;;;;;;5067558;28;20434;-66
2023/08/26 05:07:47;;;;;;;1999.90;999.90;;;19.40;99.90;;;;;;5062349;28;20436;-66
2023/08/26 05:10:14;;;;;;;1999.90;999.90;;;19.40;99.90;;;;;;5054908;28;20928;-66
2023/08/26 05:12:41;;;;;;;1999.90;999.90;;;19.30;99.90;;;;;;5059257;28;20431;-66
2023/08/26 05:15:08;;;;;;;1999.90;999.90;;;19.40;99.90;;;;;;5067227;28;20427;-67
2023/08/26 05:17:34;;;;;;;1999.90;999.90;;;19.40;99.90;;;;;;5060079;28;20444;-66
2023/08/26 05:20:02;;;;;;;1999.90;999.90;;;19.50;99.90;;;;;;5062276;28;20920;-66
2023/08/26 05:22:29;;;;;;;1999.90;999.90;;;19.50;99.90;;;;;;5068875;28;20432;-66
2023/08/26 05:24:57;;;;;;;1999.90;999.90;;;19.70;99.90;;;;;;5060000;28;20945;-66
2023/08/26 05:27:24;;;;;;;1999.90;999.90;;;19.80;99.90;;;;;;5062100;28;20434;-66
2023/08/26 05:29:51;;;;;;;1999.90;999.90;;;20.00;99.90;;;;;;5061463;28;20508;-66
2023/08/26 05:32:18;;;;;;;1999.90;999.90;;;20.10;99.90;;;;;;5057005;28;20433;-67
2023/08/26 05:34:45;;;;;;;1999.90;999.90;;;20.40;99.90;;;;;;5066296;28;20813;-66
2023/08/26 05:37:12;;;;;;;1999.90;999.90;;;20.60;99.90;;;;;;5062317;28;20826;-66
2023/08/26 05:39:38;;;;;;;1999.90;999.90;;;20.70;99.90;;;;;;5064957;28;20428;-66
2023/08/26 05:42:07;;;;;;;1999.90;999.90;;;20.70;99.90;;;;;;5068293;28;20432;-66
2023/08/26 05:44:34;;;;;;;1999.90;999.90;;;20.90;99.90;;;;;;5068181;28;20427;-66
2023/08/26 05:47:00;;;;;;;1999.90;999.90;;;20.90;99.90;;;;;;5060758;28;20433;-66
2023/08/26 05:49:27;;;;;;;1999.90;999.90;;;21.00;99.90;;;;;;5057117;28;20441;-66
2023/08/26 05:51:54;;;;;;;1999.90;999.90;;;20.70;99.90;;;;;;5094953;22;20452;-66
2023/08/26 05:54:21;;;;;;;1999.90;999.90;;;20.50;99.90;;;;;;5109840;28;20420;-66
2023/08/26 05:56:48;;;;;;;1999.90;999.90;;;20.40;99.90;;;;;;5108190;28;20510;-65
2023/08/26 05:59:16;;;;;;;1999.90;999.90;;;20.40;99.90;;;;;;5110391;28;20424;-65
2023/08/26 06:01:44;;;;;;;1999.90;999.90;;;20.20;99.90;;;;;;5110664;28;20798;-66
2023/08/26 06:04:11;;;;;;;1999.90;999.90;;;20.30;99.90;;;;;;5109401;28;20843;-65
2023/08/26 06:06:38;;;;;;;1999.90;999.90;;;20.20;99.90;;;;;;5110707;28;20424;-65
2023/08/26 06:09:04;;;;;;;1999.90;999.90;;;20.10;99.90;;;;;;5106563;28;20431;-66
2023/08/26 06:11:31;;;;;;;1999.90;999.90;;;20.10;99.90;;;;;;5110022;28;20941;-67
2023/08/26 06:13:59;;;;;;;1999.90;999.90;;;20.10;99.90;;;;;;5110634;28;20424;-65
2023/08/26 06:16:27;;;;;;;1999.90;999.90;;;20.20;99.90;;;;;;5106504;28;20428;-65
2023/08/26 06:18:53;;;;;;;1999.90;999.90;;;20.30;99.90;;;;;;5108471;28;20424;-66
2023/08/26 06:21:20;;;;;;;1999.90;999.90;;;20.20;99.90;;;;;;5107798;28;20439;-66
2023/08/26 06:23:47;;;;;;;1999.90;999.90;;;20.10;99.90;;;;;;5110170;28;20820;-66
2023/08/26 06:26:13;;;;;;;1999.90;999.90;;;20.10;99.90;;;;;;5107137;28;20420;-67
2023/08/26 06:28:40;;;;;;;1999.90;999.90;;;20.20;99.90;;;;;;5105693;28;20428;-66
2023/08/26 06:31:07;;;;;;;1999.90;999.90;;;20.30;99.90;;;;;;5109088;28;20427;-65
2023/08/26 06:33:35;;;;;;;1999.90;999.90;;;20.40;99.90;;;;;;5110299;28;20420;-67
2023/08/26 06:36:02;;;;;;;1999.90;999.90;;;20.60;99.90;;;;;;5108103;28;20420;-67
2023/08/26 06:38:29;;;;;;;1999.90;999.90;;;20.60;99.90;;;;;;5106709;28;20428;-65
2023/08/26 06:40:56;;;;;;;1999.90;999.90;;;20.70;99.90;;;;;;5110056;28;20936;-67
2023/08/26 06:43:23;;;;;;;1999.90;999.90;;;20.70;99.90;;;;;;5110130;28;20424;-67
2023/08/26 06:45:50;;;;;;;1999.90;999.90;;;20.90;99.90;;;;;;5109217;28;20427;-66
2023/08/26 06:48:17;;;;;;;1999.90;999.90;;;21.00;99.90;;;;;;5109862;28;20447;-65
2023/08/26 06:50:49;;;;;;;1999.90;999.90;;;21.00;99.90;;;;;;5109509;28;20435;-66
2023/08/26 06:53:20;;;;;;;1999.90;999.90;;;21.30;99.90;;;;;;5109417;28;20428;-68
2023/08/26 06:55:48;;;;;;;1999.90;999.90;;;21.50;99.90;;;;;;5108264;28;20797;-69
2023/08/26 06:58:14;;;;;;;1999.90;999.90;;;21.90;99.90;;;;;;5109287;28;20459;-69
2023/08/26 07:00:42;;;;;;;1999.90;999.90;;;22.20;99.90;;;;;;5108730;28;20785;-68
2023/08/26 07:03:09;;;;;;;1999.90;999.90;;;22.40;99.90;;;;;;5109260;28;20459;-68
2023/08/26 07:05:36;;;;;;;1999.90;999.90;;;22.60;99.90;;;;;;5105091;28;20483;-69
2023/08/26 07:08:05;;;;;;;1999.90;999.90;;;22.70;99.90;;;;;;5107846;28;20436;-68
2023/08/26 07:10:33;;;;;;;1999.90;999.90;;;22.70;99.90;;;;;;5107851;28;21299;-69
2023/08/26 07:13:00;;;;;;;1999.90;999.90;;;22.70;99.90;;;;;;5109814;28;20424;-67
2023/08/26 07:15:27;;;;;;;1999.90;999.90;;;22.90;99.90;;;;;;5106855;28;20428;-66
2023/08/26 07:17:54;;;;;;;1999.90;999.90;;;22.90;99.90;;;;;;5106924;28;20432;-66
2023/08/26 07:20:21;;;;;;;1999.90;999.90;;;22.70;99.90;;;;;;5107542;28;20780;-66
2023/08/26 07:22:48;;;;;;;1999.90;999.90;;;22.70;99.90;;;;;;5107427;28;20440;-67
2023/08/26 07:25:17;;;;;;;1999.90;999.90;;;22.60;99.90;;;;;;5099085;28;20806;-66
2023/08/26 07:27:44;;;;;;;1999.90;999.90;;;22.20;99.90;;;;;;5109219;28;20424;-67
2023/08/26 07:30:11;;;;;;;1999.90;999.90;;;22.00;99.90;;;;;;5107878;28;20513;-67
2023/08/26 07:32:37;;;;;;;1999.90;999.90;;;22.00;99.90;;;;;;5104890;28;20424;-68
2023/08/26 07:35:05;;;;;;;1999.90;999.90;;;22.10;99.90;;;;;;5097424;28;20425;-67
2023/08/26 07:37:32;;;;;;;1999.90;999.90;;;22.10;99.90;;;;;;5101999;28;20432;-68
2023/08/26 07:40:01;;;;;;;1999.90;999.90;;;22.10;99.90;;;;;;5108910;28;20428;-68
2023/08/26 07:42:29;;;;;;;1999.90;999.90;;;22.20;99.90;;;;;;5106835;28;20913;-67
2023/08/26 07:44:56;;;;;;;1999.90;999.90;;;22.40;99.90;;;;;;5100566;28;20426;-67
2023/08/26 07:47:22;;;;;;;1999.90;999.90;;;22.20;99.90;;;;;;5108423;28;20420;-67
2023/08/26 07:49:49;;;;;;;1999.90;999.90;;;22.10;99.90;;;;;;5108296;28;20428;-68
2023/08/26 07:52:16;;;;;;;1999.90;999.90;;;22.00;99.90;;;;;;5108091;28;20441;-67
2023/08/26 07:54:43;;;;;;;1999.90;999.90;;;21.80;99.90;;;;;;5106882;28;20452;-67
2023/08/26 07:57:09;;;;;;;1999.90;999.90;;;21.90;99.90;;;;;;5107025;28;20420;-68
2023/08/26 07:59:37;;;;;;;1999.90;999.90;;;22.30;99.90;;;;;;5108693;28;20431;-66
2023/08/26 08:02:04;;;;;;;1999.90;999.90;;;22.60;99.90;;;;;;5108226;28;20428;-68
2023/08/26 08:04:31;;;;;;;1999.90;999.90;;;22.60;99.90;;;;;;5104833;28;20429;-67
2023/08/26 08:06:58;;;;;;;1999.90;999.90;;;22.90;99.90;;;;;;5108663;28;20442;-68
2023/08/26 08:09:25;;;;;;;1999.90;999.90;;;22.90;99.90;;;;;;5106903;28;20436;-68
2023/08/26 08:11:51;;;;;;;1999.90;999.90;;;22.60;99.90;;;;;;5107932;28;20428;-67
2023/08/26 08:14:18;;;;;;;1999.90;999.90;;;22.30;99.90;;;;;;5107069;28;20432;-67
2023/08/26 08:16:46;;;;;;;1999.90;999.90;;;22.60;99.90;;;;;;5103201;28;20420;-68
2023/08/26 08:19:12;;;;;;;1999.90;999.90;;;23.10;99.90;;;;;;5107857;28;20843;-68
2023/08/26 08:21:39;;;;;;;1999.90;999.90;;;23.40;99.90;;;;;;5102766;28;20416;-68
2023/08/26 08:24:06;;;;;;;1999.90;999.90;;;23.40;99.90;;;;;;5110498;28;20404;-68
2023/08/26 08:26:33;;;;;;;1999.90;999.90;;;23.70;99.90;;;;;;5110610;28;20500;-68
2023/08/26 08:29:01;;;;;;;1999.90;999.90;;;23.60;99.90;;;;;;5109773;28;20404;-67
2023/08/26 08:31:28;;;;;;;1999.90;999.90;;;23.40;99.90;;;;;;5105648;28;20481;-68
2023/08/26 08:33:56;;;;;;;1999.90;999.90;;;23.00;99.90;;;;;;5102024;28;20436;-68
2023/08/26 08:36:22;;;;;;;1999.90;999.90;;;22.40;99.90;;;;;;5112044;28;20424;-65
2023/08/26 08:38:49;;;;;;;1999.90;999.90;;;21.90;99.90;;;;;;5112135;28;20510;-68
2023/08/26 08:41:16;;;;;;;1999.90;999.90;;;21.80;99.90;;;;;;5109806;28;20465;-67
2023/08/26 08:43:46;;;;;;;1999.90;999.90;;;21.90;99.90;;;;;;5108570;28;20424;-66
2023/08/26 08:46:15;;;;;;;1999.90;999.90;;;22.10;99.90;;;;;;5109281;28;20447;-67
2023/08/26 08:48:42;;;;;;;1999.90;999.90;;;22.30;99.90;;;;;;5108376;28;20428;-67
2023/08/26 08:51:12;;;;;;;1999.90;999.90;;;21.80;99.90;;;;;;5110422;28;20424;-68
2023/08/26 08:53:46;;;;;;;1999.90;999.90;;;21.80;99.90;;;;;;5110947;28;20515;-68
2023/08/26 08:56:15;;;;;;;1999.90;999.90;;;22.00;99.90;;;;;;5109581;28;20822;-67
2023/08/26 08:58:45;;;;;;;1999.90;999.90;;;21.80;99.90;;;;;;5109886;28;20462;-69
2023/08/26 09:01:12;;;;;;;1999.90;999.90;;;21.90;99.90;;;;;;5110023;28;20423;-68
2023/08/26 09:03:39;;;;;;;1999.90;999.90;;;22.00;99.90;;;;;;5104417;28;20423;-68
2023/08/26 09:06:07;;;;;;;1999.90;999.90;;;21.90;99.90;;;;;;5111512;28;20940;-67
2023/08/26 09:08:35;;;;;;;1999.90;999.90;;;21.70;99.90;;;;;;5110632;28;20504;-67
2023/08/26 09:11:01;;;;;;;1999.90;999.90;;;21.90;99.90;;;;;;5107470;28;20428;-67
2023/08/26 09:13:28;;;;;;;1999.90;999.90;;;21.80;99.90;;;;;;5109901;28;20431;-67
2023/08/26 09:15:55;;;;;;;1999.90;999.90;;;21.90;99.90;;;;;;5104114;28;20428;-67
2023/08/26 09:18:21;;;;;;;1999.90;999.90;;;22.20;99.90;;;;;;5110148;28;20801;-67
2023/08/26 09:20:48;;;;;;;1999.90;999.90;;;22.70;99.90;;;;;;5110783;28;20431;-67
2023/08/26 09:23:15;;;;;;;1999.90;999.90;;;22.70;99.90;;;;;;5110427;28;20432;-68
2023/08/26 09:25:54;;;;;;;1999.90;999.90;;;22.70;99.90;;;;;;5107161;28;20432;-69
2023/08/26 09:28:23;;;;;;;1999.90;999.90;;;22.90;99.90;;;;;;5108608;28;20905;-67
2023/08/26 09:31:04;;;;;;;1999.90;999.90;;;23.10;99.90;;;;;;5110742;28;20515;-67
2023/08/26 09:33:30;;;;;;;1999.90;999.90;;;23.20;99.80;;;;;;5111411;28;20575;-68
2023/08/26 09:35:58;;;;;;;1999.90;999.90;;;23.40;99.90;;;;;;5109988;28;20436;-67
2023/08/26 09:38:25;;;;;;;1999.90;999.90;;;23.60;99.70;;;;;;5107607;28;20423;-68
2023/08/26 09:40:58;;;;;;;1999.90;999.90;;;23.30;99.20;;;;;;5108856;28;20434;-67
2023/08/26 09:43:25;;;;;;;1999.90;999.90;;;23.10;99.30;;;;;;5110157;28;20420;-67
2023/08/26 09:45:56;;;;;;;1999.90;999.90;;;23.00;98.70;;;;;;5106640;28;20894;-67
2023/08/26 09:48:24;;;;;;;1999.90;999.90;;;23.10;99.70;;;;;;5107985;28;20526;-67
2023/08/26 09:50:51;;;;;;;1999.90;999.90;;;23.20;98.20;;;;;;5106020;28;20432;-67
2023/08/26 09:53:30;;;;;;;1999.90;999.90;;;23.20;98.40;;;;;;5103839;28;20424;-67
2023/08/26 09:55:59;;;;;;;1999.90;999.90;;;23.30;98.60;;;;;;5108336;28;20909;-67
2023/08/26 09:58:26;;;;;;;1999.90;999.90;;;23.20;98.20;;;;;;5102740;28;20422;-67
2023/08/26 10:00:54;;;;;;;1999.90;999.90;;;22.90;96.30;;;;;;5110120;28;20424;-67
2023/08/26 10:03:24;;;;;;;1999.90;999.90;;;22.90;97.70;;;;;;5106628;28;20460;-67
2023/08/26 10:05:54;;;;;;;1999.90;999.90;;;23.00;97.80;;;;;;5109506;28;20431;-67
2023/08/26 10:08:27;;;;;;;1999.90;999.90;;;23.00;97.20;;;;;;5105071;28;20453;-68
2023/08/26 10:10:55;;;;;;;1999.90;999.90;;;22.80;97.30;;;;;;5092505;28;20402;-67
2023/08/26 10:13:26;;;;;;;1999.90;999.90;;;22.90;97.80;;;;;;5093012;28;20414;-67
2023/08/26 10:15:55;;;;;;;1999.90;999.90;;;22.70;97.90;;;;;;5104050;28;20439;-67
2023/08/26 10:18:30;;;;;;;1999.90;999.90;;;22.60;98.20;;;;;;5104083;28;20406;-68
2023/08/26 10:21:00;;;;;;;1999.90;999.90;;;22.70;98.80;;;;;;5100440;28;20417;-68
2023/08/26 10:23:27;;;;;;;1999.90;999.90;;;23.00;98.50;;;;;;5091330;28;20413;-67
2023/08/26 10:25:54;;;;;;;1999.90;999.90;;;22.60;98.30;;;;;;5109222;28;20427;-68
2023/08/26 10:28:23;;;;;;;1999.90;999.90;;;22.80;99.20;;;;;;5112370;28;20408;-67
2023/08/26 10:30:51;;;;;;;1999.90;999.90;;;23.10;98.90;;;;;;5103693;28;20404;-68
2023/08/26 10:33:18;;;;;;;1999.90;999.90;;;23.00;98.40;;;;;;5109688;28;20570;-68
2023/08/26 10:35:58;;;;;;;1999.90;999.90;;;23.20;97.90;;;;;;5106970;28;20447;-67
2023/08/26 10:38:25;;;;;;;1999.90;999.90;;;23.30;97.90;;;;;;5108943;28;20425;-68
2023/08/26 10:41:08;;;;;;;1999.90;999.90;;;23.40;97.00;;;;;;5108907;28;20474;-68
2023/08/26 10:43:37;;;;;;;1999.90;999.90;;;23.60;96.80;;;;;;5107436;28;20561;-68
2023/08/26 10:46:03;;;;;;;1999.90;999.90;;;23.30;96.50;;;;;;5108049;28;20420;-67
2023/08/26 10:48:30;;;;;;;1999.90;999.90;;;23.30;96.70;;;;;;5109398;28;20425;-68
2023/08/26 10:51:01;;;;;;;1999.90;999.90;;;23.40;96.90;;;;;;5109281;28;20963;-68
2023/08/26 10:53:28;;;;;;;1999.90;999.90;;;23.60;96.00;;;;;;5107788;28;20439;-69
2023/08/26 10:56:13;;;;;;;1999.90;999.90;;;23.60;96.10;;;;;;5103387;28;20437;-67
2023/08/26 10:58:45;;;;;;;1999.90;999.90;;;23.40;95.60;;;;;;5102011;28;20456;-66
2023/08/26 11:01:12;;;;;;;1999.90;999.90;;;23.50;95.70;;;;;;5107665;28;20428;-67
2023/08/26 11:03:39;;;;;;;1999.90;999.90;;;23.80;95.80;;;;;;5107226;28;20463;-68
2023/08/26 11:06:08;;;;;;;1999.90;999.90;;;23.90;95.50;;;;;;5109101;28;20424;-69
2023/08/26 11:08:38;;;;;;;1999.90;999.90;;;24.00;94.00;;;;;;5108403;28;20446;-67
2023/08/26 11:11:05;;;;;;;1999.90;999.90;;;24.10;94.60;;;;;;5100951;28;20434;-67
2023/08/26 11:13:32;;;;;;;1999.90;999.90;;;24.20;94.60;;;;;;5107438;28;20408;-67
2023/08/26 11:16:00;;;;;;;1999.90;999.90;;;24.40;93.30;;;;;;5091668;28;20513;-67
2023/08/26 11:18:27;;;;;;;1999.90;999.90;;;24.30;95.00;;;;;;5091100;28;20453;-67
2023/08/26 11:20:54;;;;;;;1999.90;999.90;;;24.40;93.90;;;;;;5094835;28;20459;-67
2023/08/26 11:23:25;;;;;;;1999.90;999.90;;;24.50;93.90;;;;;;5094446;28;20416;-67
2023/08/26 11:25:51;;;;;;;1999.90;999.90;;;24.50;94.30;;;;;;5108174;28;20903;-67
2023/08/26 11:28:18;;;;;;;1999.90;999.90;;;24.50;92.20;;;;;;5108034;28;20439;-67
2023/08/26 11:30:46;;;;;;;1999.90;999.90;;;24.40;93.20;;;;;;5110506;27;20494;-67
2023/08/26 11:33:16;;;;;;;1999.90;999.90;;;24.40;93.40;;;;;;5107183;28;20473;-67
2023/08/26 11:35:43;;;;;;;1999.90;999.90;;;24.40;93.30;;;;;;5108840;28;20424;-68
2023/08/26 11:38:10;;;;;;;1999.90;999.90;;;24.40;93.40;;;;;;5109638;28;20432;-67
2023/08/26 11:40:37;;;;;;;1999.90;999.90;;;24.30;93.40;;;;;;5107174;28;20428;-66
2023/08/26 11:43:08;;;;;;;1999.90;999.90;;;24.40;94.40;;;;;;5108193;28;20431;-67
2023/08/26 11:45:35;;;;;;;1999.90;999.90;;;24.70;93.50;;;;;;5108874;28;20427;-66
2023/08/26 11:48:02;;;;;;;1999.90;999.90;;;24.60;93.60;;;;;;5103102;28;20437;-66
2023/08/26 11:50:31;;;;;;;1999.90;999.90;;;24.30;93.90;;;;;;5100509;28;20428;-66
2023/08/26 11:53:02;;;;;;;1999.90;999.90;;;24.30;93.50;;;;;;5099964;28;20432;-67
2023/08/26 11:55:30;;;;;;;1999.90;999.90;;;24.10;93.60;;;;;;5107050;28;20431;-66
2023/08/26 11:57:59;;;;;;;1999.90;999.90;;;24.20;92.80;;;;;;5099631;28;20462;-66
2023/08/26 12:00:26;;;;;;;1999.90;999.90;;;24.20;93.80;;;;;;5100110;28;20428;-66